Sorters, Texas
Current Conditions -  °F | °C
As of 9:53 AM on Friday 24 Oct 2014 (Local Time) from KIAH Reporting Station
Clear Clear  
Wind Chill: 64°   Ceiling: Unl
Heat Index: 64°   Visibility: 10mi
Dew Point: 53°   Wind: 5mph
Humidity: 67%   Direction: 30°NNE
Pressure: 30.18"   Gusts: NA
Location:  30.1192°N, 95.2824°W
Report Text: KIAH 241453Z 03004KT 10SM CLR 18/12 A3018 RMK AO2 SLP220 T01780117 51016
Loading
Personal Weather Stations






























Interactive Weather Map
Tropical Storm Tracking
New forecast layout! Learn more

10-Day Weather Forecast

Advertisements
Track Severe Weather on mobile